sensor_id;sensor_type;location;lat;lon;timestamp;P1;durP1;ratioP1;P2;durP2;ratioP2
73136;SDS011;62977;45.636;11.750;2022-10-16T00:02:19;85.50;;;39.27;;
73136;SDS011;62977;45.636;11.750;2022-10-16T00:04:45;80.93;;;39.67;;
73136;SDS011;62977;45.636;11.750;2022-10-16T00:07:11;80.97;;;39.87;;
73136;SDS011;62977;45.636;11.750;2022-10-16T00:09:36;82.35;;;39.90;;
73136;SDS011;62977;45.636;11.750;2022-10-16T00:12:02;78.63;;;37.70;;
73136;SDS011;62977;45.636;11.750;2022-10-16T00:14:29;85.10;;;39.67;;
73136;SDS011;62977;45.636;11.750;2022-10-16T00:16:55;84.78;;;41.70;;
73136;SDS011;62977;45.636;11.750;2022-10-16T00:19:20;78.23;;;39.63;;
73136;SDS011;62977;45.636;11.750;2022-10-16T00:21:46;78.00;;;39.20;;
73136;SDS011;62977;45.636;11.750;2022-10-16T00:24:12;82.13;;;40.50;;
73136;SDS011;62977;45.636;11.750;2022-10-16T00:26:38;75.90;;;37.87;;
73136;SDS011;62977;45.636;11.750;2022-10-16T00:29:04;83.70;;;39.15;;
73136;SDS011;62977;45.636;11.750;2022-10-16T00:31:30;80.80;;;39.80;;
73136;SDS011;62977;45.636;11.750;2022-10-16T00:33:56;78.93;;;39.60;;
73136;SDS011;62977;45.636;11.750;2022-10-16T00:36:22;80.30;;;40.50;;
73136;SDS011;62977;45.636;11.750;2022-10-16T00:38:50;84.07;;;39.23;;
73136;SDS011;62977;45.636;11.750;2022-10-16T00:41:20;78.90;;;38.42;;
73136;SDS011;62977;45.636;11.750;2022-10-16T00:46:21;83.60;;;40.35;;
73136;SDS011;62977;45.636;11.750;2022-10-16T00:48:57;83.45;;;40.15;;
73136;SDS011;62977;45.636;11.750;2022-10-16T00:51:48;78.33;;;39.00;;
73136;SDS011;62977;45.636;11.750;2022-10-16T00:54:19;82.43;;;39.80;;
73136;SDS011;62977;45.636;11.750;2022-10-16T00:56:48;81.05;;;39.47;;
73136;SDS011;62977;45.636;11.750;2022-10-16T00:59:23;78.00;;;40.22;;
73136;SDS011;62977;45.636;11.750;2022-10-16T01:01:51;85.97;;;39.55;;
73136;SDS011;62977;45.636;11.750;2022-10-16T01:04:17;86.90;;;40.90;;
73136;SDS011;62977;45.636;11.750;2022-10-16T01:14:35;80.25;;;39.80;;
73136;SDS011;62977;45.636;11.750;2022-10-16T01:17:26;82.65;;;39.22;;
73136;SDS011;62977;45.636;11.750;2022-10-16T01:22:43;83.75;;;39.08;;
73136;SDS011;62977;45.636;11.750;2022-10-16T01:28:34;86.30;;;40.45;;
73136;SDS011;62977;45.636;11.750;2022-10-16T01:31:05;90.85;;;40.92;;
73136;SDS011;62977;45.636;11.750;2022-10-16T01:33:51;88.97;;;41.70;;
73136;SDS011;62977;45.636;11.750;2022-10-16T01:36:28;92.13;;;42.33;;
73136;SDS011;62977;45.636;11.750;2022-10-16T01:39:02;86.43;;;41.03;;
73136;SDS011;62977;45.636;11.750;2022-10-16T01:41:31;89.47;;;42.50;;
73136;SDS011;62977;45.636;11.750;2022-10-16T01:46:31;86.82;;;42.28;;
73136;SDS011;62977;45.636;11.750;2022-10-16T01:48:58;89.47;;;43.80;;
73136;SDS011;62977;45.636;11.750;2022-10-16T01:51:26;85.33;;;42.03;;
73136;SDS011;62977;45.636;11.750;2022-10-16T01:53:55;90.85;;;42.75;;
73136;SDS011;62977;45.636;11.750;2022-10-16T01:56:24;88.47;;;41.80;;
73136;SDS011;62977;45.636;11.750;2022-10-16T01:59:12;96.88;;;43.08;;
73136;SDS011;62977;45.636;11.750;2022-10-16T02:01:42;97.30;;;43.05;;
73136;SDS011;62977;45.636;11.750;2022-10-16T02:04:24;89.30;;;42.10;;
73136;SDS011;62977;45.636;11.750;2022-10-16T02:06:59;94.88;;;42.95;;
73136;SDS011;62977;45.636;11.750;2022-10-16T02:09:25;90.50;;;42.05;;
73136;SDS011;62977;45.636;11.750;2022-10-16T02:11:52;90.78;;;43.22;;
73136;SDS011;62977;45.636;11.750;2022-10-16T02:14:21;88.70;;;42.40;;
73136;SDS011;62977;45.636;11.750;2022-10-16T02:16:49;97.67;;;43.97;;
73136;SDS011;62977;45.636;11.750;2022-10-16T02:19:15;91.47;;;43.58;;
73136;SDS011;62977;45.636;11.750;2022-10-16T02:21:57;93.90;;;42.70;;
73136;SDS011;62977;45.636;11.750;2022-10-16T02:24:51;91.45;;;43.50;;
73136;SDS011;62977;45.636;11.750;2022-10-16T02:27:48;98.93;;;44.53;;
73136;SDS011;62977;45.636;11.750;2022-10-16T02:30:35;93.53;;;43.40;;
73136;SDS011;62977;45.636;11.750;2022-10-16T02:33:07;94.55;;;44.35;;
73136;SDS011;62977;45.636;11.750;2022-10-16T02:35:34;94.13;;;43.38;;
73136;SDS011;62977;45.636;11.750;2022-10-16T02:38:01;94.13;;;45.72;;
73136;SDS011;62977;45.636;11.750;2022-10-16T02:40:28;95.00;;;44.23;;
73136;SDS011;62977;45.636;11.750;2022-10-16T02:42:54;92.25;;;43.28;;
73136;SDS011;62977;45.636;11.750;2022-10-16T02:45:20;102.65;;;44.13;;
73136;SDS011;62977;45.636;11.750;2022-10-16T02:47:47;88.78;;;43.70;;
73136;SDS011;62977;45.636;11.750;2022-10-16T02:50:13;90.50;;;44.30;;
73136;SDS011;62977;45.636;11.750;2022-10-16T02:52:39;93.25;;;43.35;;
73136;SDS011;62977;45.636;11.750;2022-10-16T02:55:04;99.23;;;44.23;;
73136;SDS011;62977;45.636;11.750;2022-10-16T02:57:31;94.97;;;46.13;;
73136;SDS011;62977;45.636;11.750;2022-10-16T02:59:57;100.88;;;45.70;;
73136;SDS011;62977;45.636;11.750;2022-10-16T03:02:22;91.05;;;44.00;;
73136;SDS011;62977;45.636;11.750;2022-10-16T03:04:48;82.50;;;41.57;;
73136;SDS011;62977;45.636;11.750;2022-10-16T03:07:14;88.35;;;43.72;;
73136;SDS011;62977;45.636;11.750;2022-10-16T03:09:40;93.07;;;44.80;;
73136;SDS011;62977;45.636;11.750;2022-10-16T03:12:05;91.07;;;44.35;;
73136;SDS011;62977;45.636;11.750;2022-10-16T03:14:31;90.78;;;43.00;;
73136;SDS011;62977;45.636;11.750;2022-10-16T03:16:57;91.57;;;42.37;;
73136;SDS011;62977;45.636;11.750;2022-10-16T03:19:23;92.82;;;44.10;;
73136;SDS011;62977;45.636;11.750;2022-10-16T03:21:48;89.10;;;43.63;;
73136;SDS011;62977;45.636;11.750;2022-10-16T03:24:14;95.18;;;43.45;;
73136;SDS011;62977;45.636;11.750;2022-10-16T03:26:40;89.87;;;44.03;;
73136;SDS011;62977;45.636;11.750;2022-10-16T03:29:05;91.40;;;44.23;;
73136;SDS011;62977;45.636;11.750;2022-10-16T03:31:31;92.60;;;43.67;;
73136;SDS011;62977;45.636;11.750;2022-10-16T03:33:57;92.63;;;43.15;;
73136;SDS011;62977;45.636;11.750;2022-10-16T03:36:23;87.57;;;43.80;;
73136;SDS011;62977;45.636;11.750;2022-10-16T03:38:48;92.57;;;43.50;;
73136;SDS011;62977;45.636;11.750;2022-10-16T03:41:14;89.43;;;43.73;;
73136;SDS011;62977;45.636;11.750;2022-10-16T03:43:40;95.80;;;43.50;;
73136;SDS011;62977;45.636;11.750;2022-10-16T03:46:05;94.63;;;42.73;;
73136;SDS011;62977;45.636;11.750;2022-10-16T03:48:31;96.82;;;45.38;;
73136;SDS011;62977;45.636;11.750;2022-10-16T03:50:57;92.03;;;43.07;;
73136;SDS011;62977;45.636;11.750;2022-10-16T03:53:23;93.43;;;42.78;;
73136;SDS011;62977;45.636;11.750;2022-10-16T03:55:49;92.18;;;45.47;;
73136;SDS011;62977;45.636;11.750;2022-10-16T03:58:14;95.37;;;45.57;;
73136;SDS011;62977;45.636;11.750;2022-10-16T04:00:41;95.03;;;44.25;;
73136;SDS011;62977;45.636;11.750;2022-10-16T04:03:12;97.65;;;44.20;;
73136;SDS011;62977;45.636;11.750;2022-10-16T04:05:37;94.80;;;43.80;;
73136;SDS011;62977;45.636;11.750;2022-10-16T04:08:03;88.40;;;41.60;;
73136;SDS011;62977;45.636;11.750;2022-10-16T04:10:29;89.10;;;42.93;;
73136;SDS011;62977;45.636;11.750;2022-10-16T04:12:55;92.18;;;43.60;;
73136;SDS011;62977;45.636;11.750;2022-10-16T04:15:21;87.05;;;42.38;;
73136;SDS011;62977;45.636;11.750;2022-10-16T04:17:48;91.93;;;42.97;;
73136;SDS011;62977;45.636;11.750;2022-10-16T04:20:14;90.05;;;43.15;;
73136;SDS011;62977;45.636;11.750;2022-10-16T04:22:39;94.68;;;43.78;;
73136;SDS011;62977;45.636;11.750;2022-10-16T04:25:05;89.67;;;43.03;;
73136;SDS011;62977;45.636;11.750;2022-10-16T04:27:31;91.57;;;42.65;;
73136;SDS011;62977;45.636;11.750;2022-10-16T04:29:58;92.13;;;42.53;;
73136;SDS011;62977;45.636;11.750;2022-10-16T04:32:24;90.83;;;42.10;;
73136;SDS011;62977;45.636;11.750;2022-10-16T04:34:50;88.57;;;41.38;;
73136;SDS011;62977;45.636;11.750;2022-10-16T04:37:16;93.47;;;42.40;;
73136;SDS011;62977;45.636;11.750;2022-10-16T04:39:41;82.87;;;40.07;;
73136;SDS011;62977;45.636;11.750;2022-10-16T04:42:07;90.22;;;42.08;;
73136;SDS011;62977;45.636;11.750;2022-10-16T04:44:33;85.87;;;41.13;;
73136;SDS011;62977;45.636;11.750;2022-10-16T04:46:58;85.70;;;41.97;;
73136;SDS011;62977;45.636;11.750;2022-10-16T04:49:24;85.00;;;41.72;;
73136;SDS011;62977;45.636;11.750;2022-10-16T04:51:50;89.30;;;41.90;;
73136;SDS011;62977;45.636;11.750;2022-10-16T04:54:15;92.47;;;42.20;;
73136;SDS011;62977;45.636;11.750;2022-10-16T04:56:41;87.50;;;41.27;;
73136;SDS011;62977;45.636;11.750;2022-10-16T04:59:15;93.53;;;42.08;;
73136;SDS011;62977;45.636;11.750;2022-10-16T05:01:42;86.80;;;41.22;;
73136;SDS011;62977;45.636;11.750;2022-10-16T05:04:08;86.00;;;41.30;;
73136;SDS011;62977;45.636;11.750;2022-10-16T05:06:34;91.47;;;41.80;;
73136;SDS011;62977;45.636;11.750;2022-10-16T05:08:59;91.85;;;44.13;;
73136;SDS011;62977;45.636;11.750;2022-10-16T05:11:25;92.10;;;42.43;;
73136;SDS011;62977;45.636;11.750;2022-10-16T05:13:50;86.65;;;40.80;;
73136;SDS011;62977;45.636;11.750;2022-10-16T05:16:16;86.90;;;40.27;;
73136;SDS011;62977;45.636;11.750;2022-10-16T05:18:42;92.15;;;41.58;;
73136;SDS011;62977;45.636;11.750;2022-10-16T05:21:08;90.60;;;42.40;;
73136;SDS011;62977;45.636;11.750;2022-10-16T05:23:34;86.03;;;40.33;;
73136;SDS011;62977;45.636;11.750;2022-10-16T05:25:59;91.27;;;41.17;;
73136;SDS011;62977;45.636;11.750;2022-10-16T05:28:26;85.77;;;39.73;;
73136;SDS011;62977;45.636;11.750;2022-10-16T05:30:55;85.70;;;39.45;;
73136;SDS011;62977;45.636;11.750;2022-10-16T05:33:22;86.55;;;41.47;;
73136;SDS011;62977;45.636;11.750;2022-10-16T05:35:49;83.47;;;40.45;;
73136;SDS011;62977;45.636;11.750;2022-10-16T05:38:15;92.23;;;44.33;;
73136;SDS011;62977;45.636;11.750;2022-10-16T05:40:41;90.90;;;41.30;;
73136;SDS011;62977;45.636;11.750;2022-10-16T05:43:08;87.40;;;40.55;;
73136;SDS011;62977;45.636;11.750;2022-10-16T05:45:33;84.22;;;40.33;;
73136;SDS011;62977;45.636;11.750;2022-10-16T05:47:59;83.87;;;39.40;;
73136;SDS011;62977;45.636;11.750;2022-10-16T05:50:26;86.03;;;41.15;;
73136;SDS011;62977;45.636;11.750;2022-10-16T05:52:53;110.68;;;48.50;;
73136;SDS011;62977;45.636;11.750;2022-10-16T05:55:18;110.87;;;51.03;;
73136;SDS011;62977;45.636;11.750;2022-10-16T05:57:44;108.47;;;47.92;;
73136;SDS011;62977;45.636;11.750;2022-10-16T06:00:10;104.47;;;47.37;;
73136;SDS011;62977;45.636;11.750;2022-10-16T06:02:36;92.78;;;42.85;;
73136;SDS011;62977;45.636;11.750;2022-10-16T06:05:01;80.20;;;40.13;;
73136;SDS011;62977;45.636;11.750;2022-10-16T06:07:27;86.75;;;42.70;;
73136;SDS011;62977;45.636;11.750;2022-10-16T06:09:53;81.33;;;39.33;;
73136;SDS011;62977;45.636;11.750;2022-10-16T06:12:19;85.25;;;39.30;;
73136;SDS011;62977;45.636;11.750;2022-10-16T06:14:45;83.30;;;38.75;;
73136;SDS011;62977;45.636;11.750;2022-10-16T06:17:14;80.77;;;37.50;;
73136;SDS011;62977;45.636;11.750;2022-10-16T06:19:40;77.35;;;37.13;;
73136;SDS011;62977;45.636;11.750;2022-10-16T06:22:06;76.82;;;39.05;;
73136;SDS011;62977;45.636;11.750;2022-10-16T06:24:32;80.77;;;37.93;;
73136;SDS011;62977;45.636;11.750;2022-10-16T06:26:57;81.20;;;39.92;;
73136;SDS011;62977;45.636;11.750;2022-10-16T06:29:23;86.03;;;39.00;;
73136;SDS011;62977;45.636;11.750;2022-10-16T06:31:49;81.03;;;37.92;;
73136;SDS011;62977;45.636;11.750;2022-10-16T06:34:14;73.00;;;36.47;;
73136;SDS011;62977;45.636;11.750;2022-10-16T06:36:40;79.80;;;39.25;;
73136;SDS011;62977;45.636;11.750;2022-10-16T06:39:06;80.72;;;39.45;;
73136;SDS011;62977;45.636;11.750;2022-10-16T06:41:35;83.20;;;38.13;;
73136;SDS011;62977;45.636;11.750;2022-10-16T06:44:01;81.03;;;39.00;;
73136;SDS011;62977;45.636;11.750;2022-10-16T06:46:30;77.57;;;37.78;;
73136;SDS011;62977;45.636;11.750;2022-10-16T06:48:55;78.53;;;38.17;;
73136;SDS011;62977;45.636;11.750;2022-10-16T06:51:22;78.10;;;39.15;;
73136;SDS011;62977;45.636;11.750;2022-10-16T06:53:49;82.00;;;39.00;;
73136;SDS011;62977;45.636;11.750;2022-10-16T06:56:23;80.77;;;38.37;;
73136;SDS011;62977;45.636;11.750;2022-10-16T06:58:50;90.05;;;39.35;;
73136;SDS011;62977;45.636;11.750;2022-10-16T07:01:17;81.15;;;37.97;;
73136;SDS011;62977;45.636;11.750;2022-10-16T07:03:45;84.57;;;39.97;;
73136;SDS011;62977;45.636;11.750;2022-10-16T07:06:12;81.28;;;40.03;;
73136;SDS011;62977;45.636;11.750;2022-10-16T07:08:40;77.23;;;37.93;;
73136;SDS011;62977;45.636;11.750;2022-10-16T07:11:08;80.63;;;38.78;;
73136;SDS011;62977;45.636;11.750;2022-10-16T07:13:36;74.57;;;36.78;;
73136;SDS011;62977;45.636;11.750;2022-10-16T07:16:06;77.45;;;39.25;;
73136;SDS011;62977;45.636;11.750;2022-10-16T07:18:32;73.43;;;36.60;;
73136;SDS011;62977;45.636;11.750;2022-10-16T07:23:44;77.57;;;37.88;;
73136;SDS011;62977;45.636;11.750;2022-10-16T07:26:10;72.53;;;37.85;;
73136;SDS011;62977;45.636;11.750;2022-10-16T07:28:37;75.80;;;38.00;;
73136;SDS011;62977;45.636;11.750;2022-10-16T07:31:05;72.30;;;37.10;;
73136;SDS011;62977;45.636;11.750;2022-10-16T07:33:33;72.37;;;37.30;;
73136;SDS011;62977;45.636;11.750;2022-10-16T07:36:00;67.72;;;35.55;;
73136;SDS011;62977;45.636;11.750;2022-10-16T07:38:26;68.97;;;36.25;;
73136;SDS011;62977;45.636;11.750;2022-10-16T07:43:24;65.37;;;34.63;;
73136;SDS011;62977;45.636;11.750;2022-10-16T07:45:50;65.78;;;36.10;;
73136;SDS011;62977;45.636;11.750;2022-10-16T07:48:17;70.38;;;35.65;;
73136;SDS011;62977;45.636;11.750;2022-10-16T07:50:43;66.07;;;35.00;;
73136;SDS011;62977;45.636;11.750;2022-10-16T07:53:09;66.55;;;33.30;;
73136;SDS011;62977;45.636;11.750;2022-10-16T07:55:35;64.97;;;34.43;;
73136;SDS011;62977;45.636;11.750;2022-10-16T07:58:01;67.18;;;35.17;;
73136;SDS011;62977;45.636;11.750;2022-10-16T08:00:27;63.08;;;35.20;;
73136;SDS011;62977;45.636;11.750;2022-10-16T08:02:52;66.37;;;35.23;;
73136;SDS011;62977;45.636;11.750;2022-10-16T08:05:18;63.93;;;34.93;;
73136;SDS011;62977;45.636;11.750;2022-10-16T08:07:50;68.10;;;36.05;;
73136;SDS011;62977;45.636;11.750;2022-10-16T08:10:17;61.75;;;33.47;;
73136;SDS011;62977;45.636;11.750;2022-10-16T08:12:43;62.83;;;34.42;;
73136;SDS011;62977;45.636;11.750;2022-10-16T08:15:09;62.30;;;34.27;;
73136;SDS011;62977;45.636;11.750;2022-10-16T08:17:35;62.45;;;33.60;;
73136;SDS011;62977;45.636;11.750;2022-10-16T08:20:01;62.17;;;34.80;;
73136;SDS011;62977;45.636;11.750;2022-10-16T08:22:27;60.75;;;34.78;;
73136;SDS011;62977;45.636;11.750;2022-10-16T08:24:53;61.57;;;34.13;;
73136;SDS011;62977;45.636;11.750;2022-10-16T08:27:19;68.63;;;34.75;;
73136;SDS011;62977;45.636;11.750;2022-10-16T08:29:45;61.30;;;32.43;;
73136;SDS011;62977;45.636;11.750;2022-10-16T08:32:10;62.40;;;34.50;;
73136;SDS011;62977;45.636;11.750;2022-10-16T08:34:36;59.97;;;33.83;;
73136;SDS011;62977;45.636;11.750;2022-10-16T08:37:02;64.15;;;34.67;;
73136;SDS011;62977;45.636;11.750;2022-10-16T08:39:27;62.80;;;34.43;;
73136;SDS011;62977;45.636;11.750;2022-10-16T08:49:27;62.33;;;35.05;;
73136;SDS011;62977;45.636;11.750;2022-10-16T08:51:54;62.10;;;35.33;;
73136;SDS011;62977;45.636;11.750;2022-10-16T08:57:00;64.45;;;34.45;;
73136;SDS011;62977;45.636;11.750;2022-10-16T08:59:34;61.67;;;34.23;;
73136;SDS011;62977;45.636;11.750;2022-10-16T09:02:00;61.13;;;33.38;;
73136;SDS011;62977;45.636;11.750;2022-10-16T09:07:19;61.30;;;34.37;;
73136;SDS011;62977;45.636;11.750;2022-10-16T09:12:48;61.33;;;34.92;;
73136;SDS011;62977;45.636;11.750;2022-10-16T09:15:35;65.95;;;35.58;;
73136;SDS011;62977;45.636;11.750;2022-10-16T09:18:13;63.17;;;34.97;;
73136;SDS011;62977;45.636;11.750;2022-10-16T09:25:55;64.82;;;34.83;;
73136;SDS011;62977;45.636;11.750;2022-10-16T09:28:23;64.40;;;34.55;;
73136;SDS011;62977;45.636;11.750;2022-10-16T09:30:49;61.85;;;35.05;;
73136;SDS011;62977;45.636;11.750;2022-10-16T09:33:17;66.30;;;35.73;;
73136;SDS011;62977;45.636;11.750;2022-10-16T09:35:49;63.83;;;35.60;;
73136;SDS011;62977;45.636;11.750;2022-10-16T09:38:27;64.88;;;34.78;;
73136;SDS011;62977;45.636;11.750;2022-10-16T09:40:58;60.25;;;33.35;;
73136;SDS011;62977;45.636;11.750;2022-10-16T09:43:40;61.97;;;34.05;;
73136;SDS011;62977;45.636;11.750;2022-10-16T09:48:58;61.53;;;33.78;;
73136;SDS011;62977;45.636;11.750;2022-10-16T09:51:30;63.58;;;34.05;;
73136;SDS011;62977;45.636;11.750;2022-10-16T09:53:59;58.80;;;33.70;;
73136;SDS011;62977;45.636;11.750;2022-10-16T09:56:32;62.80;;;33.13;;
73136;SDS011;62977;45.636;11.750;2022-10-16T09:59:02;56.00;;;32.67;;
73136;SDS011;62977;45.636;11.750;2022-10-16T10:01:36;57.90;;;34.17;;
73136;SDS011;62977;45.636;11.750;2022-10-16T10:04:03;60.38;;;32.55;;
73136;SDS011;62977;45.636;11.750;2022-10-16T10:06:34;59.63;;;33.38;;
73136;SDS011;62977;45.636;11.750;2022-10-16T10:09:06;56.08;;;31.85;;
73136;SDS011;62977;45.636;11.750;2022-10-16T10:11:42;55.37;;;32.50;;
73136;SDS011;62977;45.636;11.750;2022-10-16T10:14:13;57.88;;;32.63;;
73136;SDS011;62977;45.636;11.750;2022-10-16T10:16:40;53.55;;;31.90;;
73136;SDS011;62977;45.636;11.750;2022-10-16T10:19:12;56.47;;;32.43;;
73136;SDS011;62977;45.636;11.750;2022-10-16T10:21:42;52.30;;;30.20;;
73136;SDS011;62977;45.636;11.750;2022-10-16T10:24:10;57.55;;;31.70;;
73136;SDS011;62977;45.636;11.750;2022-10-16T10:26:37;48.47;;;29.35;;
73136;SDS011;62977;45.636;11.750;2022-10-16T10:29:11;52.53;;;30.58;;
73136;SDS011;62977;45.636;11.750;2022-10-16T10:39:38;53.80;;;31.20;;
73136;SDS011;62977;45.636;11.750;2022-10-16T10:42:33;50.35;;;30.83;;
73136;SDS011;62977;45.636;11.750;2022-10-16T11:01:30;42.60;;;26.90;;
73136;SDS011;62977;45.636;11.750;2022-10-16T11:06:36;38.13;;;24.57;;
73136;SDS011;62977;45.636;11.750;2022-10-16T11:11:49;42.00;;;25.65;;
73136;SDS011;62977;45.636;11.750;2022-10-16T11:14:18;40.13;;;25.60;;
73136;SDS011;62977;45.636;11.750;2022-10-16T11:16:56;39.80;;;24.05;;
73136;SDS011;62977;45.636;11.750;2022-10-16T11:19:31;37.03;;;24.48;;
73136;SDS011;62977;45.636;11.750;2022-10-16T11:27:54;41.47;;;24.63;;
73136;SDS011;62977;45.636;11.750;2022-10-16T11:35:44;42.23;;;25.87;;
73136;SDS011;62977;45.636;11.750;2022-10-16T11:40:54;38.00;;;23.70;;
73136;SDS011;62977;45.636;11.750;2022-10-16T11:47:19;37.33;;;24.73;;
73136;SDS011;62977;45.636;11.750;2022-10-16T11:49:40;40.83;;;25.07;;
73136;SDS011;62977;45.636;11.750;2022-10-16T11:57:40;42.03;;;26.05;;
73136;SDS011;62977;45.636;11.750;2022-10-16T12:02:50;40.47;;;24.27;;
73136;SDS011;62977;45.636;11.750;2022-10-16T12:05:46;39.78;;;24.67;;
73136;SDS011;62977;45.636;11.750;2022-10-16T12:08:24;41.90;;;25.75;;
73136;SDS011;62977;45.636;11.750;2022-10-16T12:10:50;40.28;;;25.17;;
73136;SDS011;62977;45.636;11.750;2022-10-16T12:18:37;42.70;;;26.20;;
73136;SDS011;62977;45.636;11.750;2022-10-16T12:21:10;42.20;;;25.17;;
73136;SDS011;62977;45.636;11.750;2022-10-16T12:23:47;39.13;;;24.98;;
73136;SDS011;62977;45.636;11.750;2022-10-16T12:26:23;41.63;;;25.92;;
73136;SDS011;62977;45.636;11.750;2022-10-16T12:28:53;44.73;;;26.60;;
73136;SDS011;62977;45.636;11.750;2022-10-16T12:31:20;41.08;;;26.23;;
73136;SDS011;62977;45.636;11.750;2022-10-16T12:33:59;40.25;;;25.23;;
73136;SDS011;62977;45.636;11.750;2022-10-16T12:36:37;39.58;;;25.45;;
73136;SDS011;62977;45.636;11.750;2022-10-16T12:39:03;40.15;;;25.40;;
73136;SDS011;62977;45.636;11.750;2022-10-16T12:41:31;40.20;;;24.53;;
73136;SDS011;62977;45.636;11.750;2022-10-16T12:43:59;39.42;;;24.92;;
73136;SDS011;62977;45.636;11.750;2022-10-16T12:49:06;40.57;;;24.77;;
73136;SDS011;62977;45.636;11.750;2022-10-16T12:51:37;39.42;;;24.35;;
73136;SDS011;62977;45.636;11.750;2022-10-16T13:05:17;40.97;;;26.83;;
73136;SDS011;62977;45.636;11.750;2022-10-16T13:16:27;41.43;;;26.37;;
73136;SDS011;62977;45.636;11.750;2022-10-16T13:19:26;41.00;;;25.23;;
73136;SDS011;62977;45.636;11.750;2022-10-16T13:37:29;40.57;;;27.83;;
73136;SDS011;62977;45.636;11.750;2022-10-16T13:42:50;41.42;;;26.95;;
73136;SDS011;62977;45.636;11.750;2022-10-16T13:45:22;39.60;;;25.05;;
73136;SDS011;62977;45.636;11.750;2022-10-16T13:48:00;40.03;;;27.37;;
73136;SDS011;62977;45.636;11.750;2022-10-16T13:50:30;41.70;;;26.17;;
73136;SDS011;62977;45.636;11.750;2022-10-16T13:53:05;40.53;;;27.25;;
73136;SDS011;62977;45.636;11.750;2022-10-16T13:55:32;40.58;;;26.90;;
73136;SDS011;62977;45.636;11.750;2022-10-16T13:58:05;38.03;;;25.13;;
73136;SDS011;62977;45.636;11.750;2022-10-16T14:00:37;41.13;;;25.83;;
73136;SDS011;62977;45.636;11.750;2022-10-16T14:03:07;42.35;;;26.55;;
73136;SDS011;62977;45.636;11.750;2022-10-16T14:05:52;39.97;;;26.23;;
73136;SDS011;62977;45.636;11.750;2022-10-16T14:08:20;42.00;;;27.05;;
73136;SDS011;62977;45.636;11.750;2022-10-16T14:10:48;39.40;;;25.92;;
73136;SDS011;62977;45.636;11.750;2022-10-16T14:13:20;39.40;;;25.80;;
73136;SDS011;62977;45.636;11.750;2022-10-16T14:15:55;42.90;;;28.45;;
73136;SDS011;62977;45.636;11.750;2022-10-16T14:18:24;41.35;;;27.65;;
73136;SDS011;62977;45.636;11.750;2022-10-16T14:20:52;42.95;;;27.95;;
73136;SDS011;62977;45.636;11.750;2022-10-16T14:25:46;42.03;;;27.43;;
73136;SDS011;62977;45.636;11.750;2022-10-16T14:28:19;44.53;;;27.70;;
73136;SDS011;62977;45.636;11.750;2022-10-16T14:30:54;41.08;;;26.95;;
73136;SDS011;62977;45.636;11.750;2022-10-16T14:33:22;47.22;;;27.67;;
73136;SDS011;62977;45.636;11.750;2022-10-16T14:36:04;45.83;;;28.02;;
73136;SDS011;62977;45.636;11.750;2022-10-16T14:38:40;50.43;;;27.07;;
73136;SDS011;62977;45.636;11.750;2022-10-16T14:41:27;47.47;;;26.98;;
73136;SDS011;62977;45.636;11.750;2022-10-16T14:43:58;44.28;;;26.85;;
73136;SDS011;62977;45.636;11.750;2022-10-16T14:46:35;43.25;;;25.80;;
73136;SDS011;62977;45.636;11.750;2022-10-16T14:51:38;46.93;;;27.37;;
73136;SDS011;62977;45.636;11.750;2022-10-16T14:54:10;47.20;;;28.48;;
73136;SDS011;62977;45.636;11.750;2022-10-16T14:56:55;44.38;;;27.85;;
73136;SDS011;62977;45.636;11.750;2022-10-16T14:59:39;49.72;;;27.85;;
73136;SDS011;62977;45.636;11.750;2022-10-16T15:04:42;47.00;;;27.40;;
73136;SDS011;62977;45.636;11.750;2022-10-16T15:07:08;48.00;;;27.27;;
73136;SDS011;62977;45.636;11.750;2022-10-16T15:09:33;47.90;;;28.03;;
73136;SDS011;62977;45.636;11.750;2022-10-16T15:11:59;46.80;;;27.98;;
73136;SDS011;62977;45.636;11.750;2022-10-16T15:14:25;49.77;;;29.57;;
73136;SDS011;62977;45.636;11.750;2022-10-16T15:16:50;48.95;;;28.33;;
73136;SDS011;62977;45.636;11.750;2022-10-16T15:19:16;50.00;;;28.73;;
73136;SDS011;62977;45.636;11.750;2022-10-16T15:21:41;48.93;;;27.97;;
73136;SDS011;62977;45.636;11.750;2022-10-16T15:24:09;43.97;;;26.67;;
73136;SDS011;62977;45.636;11.750;2022-10-16T15:26:37;46.42;;;27.73;;
73136;SDS011;62977;45.636;11.750;2022-10-16T15:29:03;46.80;;;28.10;;
73136;SDS011;62977;45.636;11.750;2022-10-16T15:31:29;52.13;;;29.83;;
73136;SDS011;62977;45.636;11.750;2022-10-16T15:33:55;50.78;;;28.80;;
73136;SDS011;62977;45.636;11.750;2022-10-16T15:36:35;49.70;;;28.67;;
73136;SDS011;62977;45.636;11.750;2022-10-16T15:39:11;49.75;;;29.60;;
73136;SDS011;62977;45.636;11.750;2022-10-16T15:41:43;49.33;;;28.08;;
73136;SDS011;62977;45.636;11.750;2022-10-16T15:44:16;49.30;;;29.17;;
73136;SDS011;62977;45.636;11.750;2022-10-16T15:46:42;52.03;;;28.98;;
73136;SDS011;62977;45.636;11.750;2022-10-16T15:49:08;45.65;;;27.92;;
73136;SDS011;62977;45.636;11.750;2022-10-16T15:51:35;58.05;;;30.42;;
73136;SDS011;62977;45.636;11.750;2022-10-16T15:54:03;67.53;;;36.85;;
73136;SDS011;62977;45.636;11.750;2022-10-16T15:56:29;61.10;;;35.50;;
73136;SDS011;62977;45.636;11.750;2022-10-16T15:58:58;55.60;;;30.65;;
73136;SDS011;62977;45.636;11.750;2022-10-16T16:01:24;54.22;;;29.35;;
73136;SDS011;62977;45.636;11.750;2022-10-16T16:03:53;52.75;;;29.17;;
73136;SDS011;62977;45.636;11.750;2022-10-16T16:06:19;48.53;;;28.27;;
73136;SDS011;62977;45.636;11.750;2022-10-16T16:08:45;52.67;;;28.60;;
73136;SDS011;62977;45.636;11.750;2022-10-16T16:11:12;58.95;;;30.00;;
73136;SDS011;62977;45.636;11.750;2022-10-16T16:13:39;53.30;;;29.27;;
73136;SDS011;62977;45.636;11.750;2022-10-16T16:16:10;53.05;;;28.67;;
73136;SDS011;62977;45.636;11.750;2022-10-16T16:18:37;57.47;;;31.52;;
73136;SDS011;62977;45.636;11.750;2022-10-16T16:21:03;57.53;;;31.25;;
73136;SDS011;62977;45.636;11.750;2022-10-16T16:23:29;51.70;;;30.17;;
73136;SDS011;62977;45.636;11.750;2022-10-16T16:26:06;52.63;;;29.15;;
73136;SDS011;62977;45.636;11.750;2022-10-16T16:28:35;52.67;;;31.13;;
73136;SDS011;62977;45.636;11.750;2022-10-16T16:31:03;59.33;;;32.88;;
73136;SDS011;62977;45.636;11.750;2022-10-16T16:33:31;51.38;;;29.80;;
73136;SDS011;62977;45.636;11.750;2022-10-16T16:35:58;59.07;;;30.17;;
73136;SDS011;62977;45.636;11.750;2022-10-16T16:38:27;54.20;;;31.15;;
73136;SDS011;62977;45.636;11.750;2022-10-16T16:40:54;51.03;;;30.65;;
73136;SDS011;62977;45.636;11.750;2022-10-16T16:43:24;47.85;;;29.10;;
73136;SDS011;62977;45.636;11.750;2022-10-16T16:45:51;56.63;;;30.92;;
73136;SDS011;62977;45.636;11.750;2022-10-16T16:48:17;56.00;;;32.53;;
73136;SDS011;62977;45.636;11.750;2022-10-16T16:50:43;57.63;;;32.55;;
73136;SDS011;62977;45.636;11.750;2022-10-16T16:53:09;62.03;;;38.33;;
73136;SDS011;62977;45.636;11.750;2022-10-16T16:55:35;72.27;;;42.00;;
73136;SDS011;62977;45.636;11.750;2022-10-16T16:58:00;66.23;;;38.43;;